sensor_id;sensor_type;location;lat;lon;timestamp;temperature;humidity
13794;DHT22;31160;49.500;7.772;2022-12-07T00:00:15;3.70;99.90
13794;DHT22;31160;49.500;7.772;2022-12-07T00:02:42;3.60;99.90
13794;DHT22;31160;49.500;7.772;2022-12-07T00:05:09;3.70;99.90
13794;DHT22;31160;49.500;7.772;2022-12-07T00:07:35;3.80;99.90
13794;DHT22;31160;49.500;7.772;2022-12-07T00:10:02;3.90;99.90
13794;DHT22;31160;49.500;7.772;2022-12-07T00:12:29;4.00;99.90
13794;DHT22;31160;49.500;7.772;2022-12-07T00:14:56;4.00;99.90
13794;DHT22;31160;49.500;7.772;2022-12-07T00:17:23;4.00;99.90
13794;DHT22;31160;49.500;7.772;2022-12-07T00:19:49;4.00;99.90
13794;DHT22;31160;49.500;7.772;2022-12-07T00:22:16;4.10;99.90
13794;DHT22;31160;49.500;7.772;2022-12-07T00:24:43;4.10;99.90
13794;DHT22;31160;49.500;7.772;2022-12-07T00:27:09;4.00;99.90
13794;DHT22;31160;49.500;7.772;2022-12-07T00:29:36;4.00;99.90
13794;DHT22;31160;49.500;7.772;2022-12-07T00:32:03;4.00;99.90
13794;DHT22;31160;49.500;7.772;2022-12-07T00:34:30;4.00;99.90
13794;DHT22;31160;49.500;7.772;2022-12-07T00:36:57;4.10;99.90
13794;DHT22;31160;49.500;7.772;2022-12-07T00:39:23;4.20;99.90
13794;DHT22;31160;49.500;7.772;2022-12-07T00:41:50;4.20;99.90
13794;DHT22;31160;49.500;7.772;2022-12-07T00:44:17;4.20;99.90
13794;DHT22;31160;49.500;7.772;2022-12-07T00:46:43;4.20;99.90
13794;DHT22;31160;49.500;7.772;2022-12-07T00:49:11;4.30;99.90
13794;DHT22;31160;49.500;7.772;2022-12-07T00:51:38;4.40;99.90
13794;DHT22;31160;49.500;7.772;2022-12-07T00:54:05;4.40;99.90
13794;DHT22;31160;49.500;7.772;2022-12-07T00:56:32;4.30;99.90
13794;DHT22;31160;49.500;7.772;2022-12-07T00:59:00;4.20;99.90
13794;DHT22;31160;49.500;7.772;2022-12-07T01:01:30;4.20;99.90
13794;DHT22;31160;49.500;7.772;2022-12-07T01:03:57;4.10;99.90
13794;DHT22;31160;49.500;7.772;2022-12-07T01:06:25;4.00;99.90
13794;DHT22;31160;49.500;7.772;2022-12-07T01:08:52;3.90;99.90
13794;DHT22;31160;49.500;7.772;2022-12-07T01:11:22;3.80;99.90
13794;DHT22;31160;49.500;7.772;2022-12-07T01:13:50;3.90;99.90
13794;DHT22;31160;49.500;7.772;2022-12-07T01:16:18;3.80;99.90
13794;DHT22;31160;49.500;7.772;2022-12-07T01:18:48;3.80;99.90
13794;DHT22;31160;49.500;7.772;2022-12-07T01:21:17;3.70;99.90
13794;DHT22;31160;49.500;7.772;2022-12-07T01:23:44;3.70;99.90
13794;DHT22;31160;49.500;7.772;2022-12-07T01:26:13;3.70;99.90
13794;DHT22;31160;49.500;7.772;2022-12-07T01:28:40;3.70;99.90
13794;DHT22;31160;49.500;7.772;2022-12-07T01:31:10;3.70;99.90
13794;DHT22;31160;49.500;7.772;2022-12-07T01:33:39;3.70;99.90
13794;DHT22;31160;49.500;7.772;2022-12-07T01:36:15;3.70;99.90
13794;DHT22;31160;49.500;7.772;2022-12-07T01:38:43;3.70;99.90
13794;DHT22;31160;49.500;7.772;2022-12-07T01:41:11;3.80;99.90
13794;DHT22;31160;49.500;7.772;2022-12-07T01:46:36;3.80;99.90
13794;DHT22;31160;49.500;7.772;2022-12-07T01:49:09;3.80;99.90
13794;DHT22;31160;49.500;7.772;2022-12-07T01:51:37;3.90;99.90
13794;DHT22;31160;49.500;7.772;2022-12-07T01:54:07;3.90;99.90
13794;DHT22;31160;49.500;7.772;2022-12-07T01:56:34;3.80;99.90
13794;DHT22;31160;49.500;7.772;2022-12-07T01:59:02;3.80;99.90
13794;DHT22;31160;49.500;7.772;2022-12-07T02:01:29;3.80;99.90
13794;DHT22;31160;49.500;7.772;2022-12-07T02:03:56;3.90;99.90
13794;DHT22;31160;49.500;7.772;2022-12-07T02:06:25;3.90;99.90
13794;DHT22;31160;49.500;7.772;2022-12-07T02:08:52;4.00;99.90
13794;DHT22;31160;49.500;7.772;2022-12-07T02:11:20;4.00;99.90
13794;DHT22;31160;49.500;7.772;2022-12-07T02:13:47;4.00;99.90
13794;DHT22;31160;49.500;7.772;2022-12-07T02:16:29;4.00;99.90
13794;DHT22;31160;49.500;7.772;2022-12-07T02:27:47;3.90;99.90
13794;DHT22;31160;49.500;7.772;2022-12-07T02:30:20;3.90;99.90
13794;DHT22;31160;49.500;7.772;2022-12-07T02:33:19;3.90;99.90
13794;DHT22;31160;49.500;7.772;2022-12-07T02:35:58;3.90;99.90
13794;DHT22;31160;49.500;7.772;2022-12-07T02:38:31;3.90;99.90
13794;DHT22;31160;49.500;7.772;2022-12-07T02:41:12;3.90;99.90
13794;DHT22;31160;49.500;7.772;2022-12-07T02:43:45;3.90;99.90
13794;DHT22;31160;49.500;7.772;2022-12-07T02:46:19;4.00;99.90
13794;DHT22;31160;49.500;7.772;2022-12-07T02:48:47;3.90;99.90
13794;DHT22;31160;49.500;7.772;2022-12-07T02:51:18;4.00;99.90
13794;DHT22;31160;49.500;7.772;2022-12-07T02:53:45;4.10;99.90
13794;DHT22;31160;49.500;7.772;2022-12-07T03:07:12;3.90;99.90
13794;DHT22;31160;49.500;7.772;2022-12-07T03:09:57;3.90;99.90
13794;DHT22;31160;49.500;7.772;2022-12-07T03:12:38;3.80;99.90
13794;DHT22;31160;49.500;7.772;2022-12-07T03:15:14;3.80;99.90
13794;DHT22;31160;49.500;7.772;2022-12-07T03:17:44;3.80;99.90
13794;DHT22;31160;49.500;7.772;2022-12-07T03:20:16;3.90;99.90
13794;DHT22;31160;49.500;7.772;2022-12-07T03:22:44;3.90;99.90
13794;DHT22;31160;49.500;7.772;2022-12-07T03:25:14;3.90;99.90
13794;DHT22;31160;49.500;7.772;2022-12-07T03:27:46;3.90;99.90
13794;DHT22;31160;49.500;7.772;2022-12-07T03:33:07;3.80;99.90
13794;DHT22;31160;49.500;7.772;2022-12-07T03:35:45;3.70;99.90
13794;DHT22;31160;49.500;7.772;2022-12-07T03:38:25;3.80;99.90
13794;DHT22;31160;49.500;7.772;2022-12-07T03:41:16;3.80;99.90
13794;DHT22;31160;49.500;7.772;2022-12-07T03:43:46;3.80;99.90
13794;DHT22;31160;49.500;7.772;2022-12-07T03:49:28;3.80;99.90
13794;DHT22;31160;49.500;7.772;2022-12-07T03:54:41;3.80;99.90
13794;DHT22;31160;49.500;7.772;2022-12-07T03:57:12;3.90;99.90
13794;DHT22;31160;49.500;7.772;2022-12-07T03:59:39;3.90;99.90
13794;DHT22;31160;49.500;7.772;2022-12-07T04:02:07;3.80;99.90
13794;DHT22;31160;49.500;7.772;2022-12-07T04:04:34;3.90;99.90
13794;DHT22;31160;49.500;7.772;2022-12-07T04:07:01;3.80;99.90
13794;DHT22;31160;49.500;7.772;2022-12-07T04:09:28;3.90;99.90
13794;DHT22;31160;49.500;7.772;2022-12-07T04:11:55;3.90;99.90
13794;DHT22;31160;49.500;7.772;2022-12-07T04:14:21;4.00;99.90
13794;DHT22;31160;49.500;7.772;2022-12-07T04:16:50;4.00;99.90
13794;DHT22;31160;49.500;7.772;2022-12-07T04:19:19;3.80;99.90
13794;DHT22;31160;49.500;7.772;2022-12-07T04:21:47;3.80;99.90
13794;DHT22;31160;49.500;7.772;2022-12-07T04:24:15;3.90;99.90
13794;DHT22;31160;49.500;7.772;2022-12-07T04:26:42;3.90;99.90
13794;DHT22;31160;49.500;7.772;2022-12-07T04:29:10;3.90;99.90
13794;DHT22;31160;49.500;7.772;2022-12-07T04:31:37;3.90;99.90
13794;DHT22;31160;49.500;7.772;2022-12-07T04:34:04;3.70;99.90
13794;DHT22;31160;49.500;7.772;2022-12-07T04:36:32;3.90;99.90
13794;DHT22;31160;49.500;7.772;2022-12-07T04:38:58;4.00;99.90
13794;DHT22;31160;49.500;7.772;2022-12-07T04:41:25;3.80;99.90
13794;DHT22;31160;49.500;7.772;2022-12-07T04:43:56;3.90;99.90
13794;DHT22;31160;49.500;7.772;2022-12-07T04:46:24;3.90;99.90
13794;DHT22;31160;49.500;7.772;2022-12-07T04:48:52;3.90;99.90
13794;DHT22;31160;49.500;7.772;2022-12-07T04:51:25;4.00;99.90
13794;DHT22;31160;49.500;7.772;2022-12-07T04:53:52;4.10;99.90
13794;DHT22;31160;49.500;7.772;2022-12-07T04:56:19;4.00;99.90
13794;DHT22;31160;49.500;7.772;2022-12-07T04:58:47;4.10;99.90
13794;DHT22;31160;49.500;7.772;2022-12-07T05:01:16;4.10;99.90
13794;DHT22;31160;49.500;7.772;2022-12-07T05:03:43;4.10;99.90
13794;DHT22;31160;49.500;7.772;2022-12-07T05:06:11;4.10;99.90
13794;DHT22;31160;49.500;7.772;2022-12-07T05:08:40;4.10;99.90
13794;DHT22;31160;49.500;7.772;2022-12-07T05:11:08;4.10;99.90
13794;DHT22;31160;49.500;7.772;2022-12-07T05:13:36;4.20;99.90
13794;DHT22;31160;49.500;7.772;2022-12-07T05:16:02;4.10;99.90
13794;DHT22;31160;49.500;7.772;2022-12-07T05:18:29;4.10;99.90
13794;DHT22;31160;49.500;7.772;2022-12-07T05:20:56;4.10;99.90
13794;DHT22;31160;49.500;7.772;2022-12-07T05:23:23;4.10;99.90
13794;DHT22;31160;49.500;7.772;2022-12-07T05:25:49;4.10;99.90
13794;DHT22;31160;49.500;7.772;2022-12-07T05:28:16;4.10;99.90
13794;DHT22;31160;49.500;7.772;2022-12-07T05:30:43;4.10;99.90
13794;DHT22;31160;49.500;7.772;2022-12-07T05:33:09;4.10;99.90
13794;DHT22;31160;49.500;7.772;2022-12-07T05:35:36;4.10;99.90
13794;DHT22;31160;49.500;7.772;2022-12-07T05:38:04;4.10;99.90
13794;DHT22;31160;49.500;7.772;2022-12-07T05:40:31;4.00;99.90
13794;DHT22;31160;49.500;7.772;2022-12-07T05:42:57;4.10;99.90
13794;DHT22;31160;49.500;7.772;2022-12-07T05:45:30;4.10;99.90
13794;DHT22;31160;49.500;7.772;2022-12-07T05:47:57;4.10;99.90
13794;DHT22;31160;49.500;7.772;2022-12-07T05:50:24;4.10;99.90
13794;DHT22;31160;49.500;7.772;2022-12-07T05:52:59;4.10;99.90
13794;DHT22;31160;49.500;7.772;2022-12-07T05:55:26;4.10;99.90
13794;DHT22;31160;49.500;7.772;2022-12-07T05:57:53;4.10;99.90
13794;DHT22;31160;49.500;7.772;2022-12-07T06:00:38;4.00;99.90
13794;DHT22;31160;49.500;7.772;2022-12-07T06:03:05;4.10;99.90
13794;DHT22;31160;49.500;7.772;2022-12-07T06:05:32;4.10;99.90
13794;DHT22;31160;49.500;7.772;2022-12-07T06:07:58;4.20;99.90
13794;DHT22;31160;49.500;7.772;2022-12-07T06:10:31;4.20;99.90
13794;DHT22;31160;49.500;7.772;2022-12-07T06:12:58;4.20;99.90
13794;DHT22;31160;49.500;7.772;2022-12-07T06:15:25;4.20;99.90
13794;DHT22;31160;49.500;7.772;2022-12-07T06:17:51;4.30;99.90
13794;DHT22;31160;49.500;7.772;2022-12-07T06:20:18;4.20;99.90
13794;DHT22;31160;49.500;7.772;2022-12-07T06:22:45;4.30;99.90
13794;DHT22;31160;49.500;7.772;2022-12-07T06:25:12;4.20;99.90
13794;DHT22;31160;49.500;7.772;2022-12-07T06:27:38;4.20;99.90
13794;DHT22;31160;49.500;7.772;2022-12-07T06:30:06;4.30;99.90
13794;DHT22;31160;49.500;7.772;2022-12-07T06:32:36;4.20;99.90
13794;DHT22;31160;49.500;7.772;2022-12-07T06:35:04;4.30;99.90
13794;DHT22;31160;49.500;7.772;2022-12-07T06:37:31;4.20;99.90
13794;DHT22;31160;49.500;7.772;2022-12-07T06:39:58;4.20;99.90
13794;DHT22;31160;49.500;7.772;2022-12-07T06:42:25;4.20;99.90
13794;DHT22;31160;49.500;7.772;2022-12-07T06:44:51;4.30;99.90
13794;DHT22;31160;49.500;7.772;2022-12-07T06:47:18;4.20;99.90
13794;DHT22;31160;49.500;7.772;2022-12-07T06:50:05;4.20;99.90
13794;DHT22;31160;49.500;7.772;2022-12-07T06:52:34;4.30;99.90
13794;DHT22;31160;49.500;7.772;2022-12-07T06:55:01;4.40;99.90
13794;DHT22;31160;49.500;7.772;2022-12-07T06:57:27;4.30;99.90
13794;DHT22;31160;49.500;7.772;2022-12-07T06:59:54;4.30;99.90
13794;DHT22;31160;49.500;7.772;2022-12-07T07:02:21;4.40;99.90
13794;DHT22;31160;49.500;7.772;2022-12-07T07:04:48;4.40;99.90
13794;DHT22;31160;49.500;7.772;2022-12-07T07:07:14;4.40;99.90
13794;DHT22;31160;49.500;7.772;2022-12-07T07:09:41;4.40;99.90
13794;DHT22;31160;49.500;7.772;2022-12-07T07:12:08;4.50;99.90
13794;DHT22;31160;49.500;7.772;2022-12-07T07:14:34;4.50;99.90
13794;DHT22;31160;49.500;7.772;2022-12-07T07:17:02;4.50;99.90
13794;DHT22;31160;49.500;7.772;2022-12-07T07:19:28;4.50;99.90
13794;DHT22;31160;49.500;7.772;2022-12-07T07:21:55;4.40;99.90
13794;DHT22;31160;49.500;7.772;2022-12-07T07:24:22;4.50;99.90
13794;DHT22;31160;49.500;7.772;2022-12-07T07:26:48;4.50;99.90
13794;DHT22;31160;49.500;7.772;2022-12-07T07:29:15;4.60;99.90
13794;DHT22;31160;49.500;7.772;2022-12-07T07:31:42;4.60;99.90
13794;DHT22;31160;49.500;7.772;2022-12-07T07:34:09;4.50;99.90
13794;DHT22;31160;49.500;7.772;2022-12-07T07:36:35;4.60;99.90
13794;DHT22;31160;49.500;7.772;2022-12-07T07:39:02;4.60;99.90
13794;DHT22;31160;49.500;7.772;2022-12-07T07:41:29;4.60;99.90
13794;DHT22;31160;49.500;7.772;2022-12-07T07:43:56;4.60;99.90
13794;DHT22;31160;49.500;7.772;2022-12-07T07:46:23;4.60;99.90
13794;DHT22;31160;49.500;7.772;2022-12-07T07:48:49;4.60;99.90
13794;DHT22;31160;49.500;7.772;2022-12-07T07:51:16;4.60;99.90
13794;DHT22;31160;49.500;7.772;2022-12-07T07:53:43;4.60;99.90
13794;DHT22;31160;49.500;7.772;2022-12-07T07:56:09;4.50;99.90
13794;DHT22;31160;49.500;7.772;2022-12-07T07:58:36;4.60;99.90
13794;DHT22;31160;49.500;7.772;2022-12-07T08:01:07;4.60;99.90
13794;DHT22;31160;49.500;7.772;2022-12-07T08:03:34;4.70;99.90
13794;DHT22;31160;49.500;7.772;2022-12-07T08:06:03;4.60;99.90
13794;DHT22;31160;49.500;7.772;2022-12-07T08:08:29;4.70;99.90
13794;DHT22;31160;49.500;7.772;2022-12-07T08:10:56;4.70;99.90
13794;DHT22;31160;49.500;7.772;2022-12-07T08:13:26;4.80;99.90
13794;DHT22;31160;49.500;7.772;2022-12-07T08:15:57;4.80;99.90
13794;DHT22;31160;49.500;7.772;2022-12-07T08:18:24;4.80;99.90
13794;DHT22;31160;49.500;7.772;2022-12-07T08:20:51;4.90;99.90
13794;DHT22;31160;49.500;7.772;2022-12-07T08:23:18;4.90;99.90
13794;DHT22;31160;49.500;7.772;2022-12-07T08:25:44;4.90;99.90
13794;DHT22;31160;49.500;7.772;2022-12-07T08:28:11;5.00;99.90
13794;DHT22;31160;49.500;7.772;2022-12-07T08:30:38;5.10;99.90
13794;DHT22;31160;49.500;7.772;2022-12-07T08:33:04;5.10;99.90
13794;DHT22;31160;49.500;7.772;2022-12-07T08:35:33;5.20;99.90
13794;DHT22;31160;49.500;7.772;2022-12-07T08:38:00;5.30;99.90
13794;DHT22;31160;49.500;7.772;2022-12-07T08:40:28;5.30;99.90
13794;DHT22;31160;49.500;7.772;2022-12-07T08:42:55;5.30;99.90
13794;DHT22;31160;49.500;7.772;2022-12-07T08:45:22;5.30;99.90
13794;DHT22;31160;49.500;7.772;2022-12-07T08:48:02;5.30;99.90
13794;DHT22;31160;49.500;7.772;2022-12-07T08:50:31;5.20;99.90
13794;DHT22;31160;49.500;7.772;2022-12-07T08:53:00;5.30;99.90
13794;DHT22;31160;49.500;7.772;2022-12-07T08:55:27;5.30;99.90
13794;DHT22;31160;49.500;7.772;2022-12-07T08:57:54;5.20;99.90
13794;DHT22;31160;49.500;7.772;2022-12-07T09:00:22;5.20;99.90
13794;DHT22;31160;49.500;7.772;2022-12-07T09:02:48;5.40;99.90
13794;DHT22;31160;49.500;7.772;2022-12-07T09:05:15;5.40;99.90
13794;DHT22;31160;49.500;7.772;2022-12-07T09:07:48;5.40;99.90
13794;DHT22;31160;49.500;7.772;2022-12-07T09:10:15;5.40;99.90
13794;DHT22;31160;49.500;7.772;2022-12-07T09:12:42;5.40;99.90
13794;DHT22;31160;49.500;7.772;2022-12-07T09:15:09;5.40;99.90
13794;DHT22;31160;49.500;7.772;2022-12-07T09:17:36;5.20;99.90
13794;DHT22;31160;49.500;7.772;2022-12-07T09:20:04;5.20;99.90
13794;DHT22;31160;49.500;7.772;2022-12-07T09:22:32;5.20;99.90
13794;DHT22;31160;49.500;7.772;2022-12-07T09:24:59;5.20;99.90
13794;DHT22;31160;49.500;7.772;2022-12-07T09:27:26;5.30;99.90
13794;DHT22;31160;49.500;7.772;2022-12-07T09:29:53;5.40;99.90
13794;DHT22;31160;49.500;7.772;2022-12-07T09:32:20;5.30;99.90
13794;DHT22;31160;49.500;7.772;2022-12-07T09:34:47;5.40;99.90
13794;DHT22;31160;49.500;7.772;2022-12-07T09:37:14;5.30;99.90
13794;DHT22;31160;49.500;7.772;2022-12-07T09:39:41;5.30;99.90
13794;DHT22;31160;49.500;7.772;2022-12-07T09:42:37;5.40;99.90
13794;DHT22;31160;49.500;7.772;2022-12-07T09:45:10;5.50;99.90
13794;DHT22;31160;49.500;7.772;2022-12-07T09:47:38;5.50;99.90
13794;DHT22;31160;49.500;7.772;2022-12-07T09:50:12;5.60;99.90
13794;DHT22;31160;49.500;7.772;2022-12-07T09:52:40;5.50;99.90
13794;DHT22;31160;49.500;7.772;2022-12-07T09:55:15;5.50;99.90
13794;DHT22;31160;49.500;7.772;2022-12-07T09:57:43;5.70;99.90
13794;DHT22;31160;49.500;7.772;2022-12-07T10:00:16;5.60;99.90
13794;DHT22;31160;49.500;7.772;2022-12-07T10:02:46;5.60;99.90
13794;DHT22;31160;49.500;7.772;2022-12-07T10:05:17;5.80;99.90
13794;DHT22;31160;49.500;7.772;2022-12-07T10:07:50;5.90;99.90
13794;DHT22;31160;49.500;7.772;2022-12-07T10:10:31;5.90;99.90
13794;DHT22;31160;49.500;7.772;2022-12-07T10:13:06;5.90;99.90
13794;DHT22;31160;49.500;7.772;2022-12-07T10:15:46;5.90;99.90
13794;DHT22;31160;49.500;7.772;2022-12-07T10:23:35;5.90;99.90
13794;DHT22;31160;49.500;7.772;2022-12-07T10:26:30;5.80;99.90
13794;DHT22;31160;49.500;7.772;2022-12-07T10:31:45;6.10;99.90
13794;DHT22;31160;49.500;7.772;2022-12-07T10:34:34;6.20;99.90
13794;DHT22;31160;49.500;7.772;2022-12-07T10:37:16;6.20;99.90
13794;DHT22;31160;49.500;7.772;2022-12-07T10:39:52;6.20;99.90
13794;DHT22;31160;49.500;7.772;2022-12-07T10:42:23;6.10;99.90
13794;DHT22;31160;49.500;7.772;2022-12-07T10:45:12;6.30;99.90
13794;DHT22;31160;49.500;7.772;2022-12-07T10:50:54;6.50;99.90
13794;DHT22;31160;49.500;7.772;2022-12-07T10:56:35;6.60;99.90
13794;DHT22;31160;49.500;7.772;2022-12-07T11:04:38;6.70;99.90
13794;DHT22;31160;49.500;7.772;2022-12-07T11:09:56;6.60;99.90
13794;DHT22;31160;49.500;7.772;2022-12-07T11:18:58;6.70;99.90
13794;DHT22;31160;49.500;7.772;2022-12-07T11:24:06;6.80;99.90
13794;DHT22;31160;49.500;7.772;2022-12-07T11:29:55;7.20;99.90
13794;DHT22;31160;49.500;7.772;2022-12-07T11:37:43;7.50;99.90
13794;DHT22;31160;49.500;7.772;2022-12-07T11:40:30;7.60;99.90
13794;DHT22;31160;49.500;7.772;2022-12-07T11:43:22;7.40;99.90
13794;DHT22;31160;49.500;7.772;2022-12-07T11:46:09;7.50;99.90
13794;DHT22;31160;49.500;7.772;2022-12-07T11:48:43;7.70;99.90
13794;DHT22;31160;49.500;7.772;2022-12-07T11:51:12;7.60;99.90
13794;DHT22;31160;49.500;7.772;2022-12-07T11:56:16;7.70;99.90
13794;DHT22;31160;49.500;7.772;2022-12-07T12:01:24;7.00;99.90
13794;DHT22;31160;49.500;7.772;2022-12-07T12:06:23;7.30;99.90
13794;DHT22;31160;49.500;7.772;2022-12-07T12:15:26;7.40;99.90
13794;DHT22;31160;49.500;7.772;2022-12-07T12:23:20;7.40;99.90
13794;DHT22;31160;49.500;7.772;2022-12-07T12:25:54;7.00;99.90
13794;DHT22;31160;49.500;7.772;2022-12-07T12:28:38;6.70;99.90
13794;DHT22;31160;49.500;7.772;2022-12-07T12:52:47;7.70;99.90
13794;DHT22;31160;49.500;7.772;2022-12-07T12:55:13;7.70;99.90
13794;DHT22;31160;49.500;7.772;2022-12-07T12:57:41;7.60;99.90
13794;DHT22;31160;49.500;7.772;2022-12-07T13:00:22;7.50;99.90
13794;DHT22;31160;49.500;7.772;2022-12-07T13:02:59;7.40;99.90
13794;DHT22;31160;49.500;7.772;2022-12-07T13:05:30;7.30;99.90
13794;DHT22;31160;49.500;7.772;2022-12-07T13:08:01;7.10;99.90
13794;DHT22;31160;49.500;7.772;2022-12-07T13:15:39;6.60;99.90
13794;DHT22;31160;49.500;7.772;2022-12-07T13:21:40;6.70;99.90
13794;DHT22;31160;49.500;7.772;2022-12-07T13:26:38;6.70;99.90
13794;DHT22;31160;49.500;7.772;2022-12-07T13:29:19;6.70;99.90
13794;DHT22;31160;49.500;7.772;2022-12-07T13:31:52;6.50;99.90
13794;DHT22;31160;49.500;7.772;2022-12-07T13:34:39;6.40;99.90
13794;DHT22;31160;49.500;7.772;2022-12-07T13:37:24;6.40;99.90
13794;DHT22;31160;49.500;7.772;2022-12-07T13:39:57;6.60;99.90
13794;DHT22;31160;49.500;7.772;2022-12-07T13:42:32;6.70;99.90
13794;DHT22;31160;49.500;7.772;2022-12-07T13:45:17;6.50;99.90
13794;DHT22;31160;49.500;7.772;2022-12-07T13:47:54;6.30;99.90
13794;DHT22;31160;49.500;7.772;2022-12-07T13:50:26;6.40;99.90
13794;DHT22;31160;49.500;7.772;2022-12-07T13:53:00;6.40;99.90
13794;DHT22;31160;49.500;7.772;2022-12-07T13:55:29;6.50;99.90
13794;DHT22;31160;49.500;7.772;2022-12-07T13:57:56;6.40;99.90
13794;DHT22;31160;49.500;7.772;2022-12-07T14:00:25;6.60;99.90
13794;DHT22;31160;49.500;7.772;2022-12-07T14:05:41;6.70;99.90
13794;DHT22;31160;49.500;7.772;2022-12-07T14:13:32;6.50;99.90
13794;DHT22;31160;49.500;7.772;2022-12-07T14:16:22;6.50;99.90
13794;DHT22;31160;49.500;7.772;2022-12-07T14:18:49;6.40;99.90
13794;DHT22;31160;49.500;7.772;2022-12-07T14:21:18;6.50;99.90
13794;DHT22;31160;49.500;7.772;2022-12-07T14:24:17;6.60;99.90
13794;DHT22;31160;49.500;7.772;2022-12-07T14:26:46;6.60;99.90
13794;DHT22;31160;49.500;7.772;2022-12-07T14:29:33;6.60;99.90
13794;DHT22;31160;49.500;7.772;2022-12-07T14:32:23;6.50;99.90
13794;DHT22;31160;49.500;7.772;2022-12-07T14:34:59;6.40;99.90
13794;DHT22;31160;49.500;7.772;2022-12-07T14:37:28;6.30;99.90
13794;DHT22;31160;49.500;7.772;2022-12-07T14:39:56;6.40;99.90
13794;DHT22;31160;49.500;7.772;2022-12-07T14:42:26;6.30;99.90
13794;DHT22;31160;49.500;7.772;2022-12-07T14:44:54;6.20;99.90
13794;DHT22;31160;49.500;7.772;2022-12-07T14:47:21;6.30;99.90
13794;DHT22;31160;49.500;7.772;2022-12-07T14:50:10;6.30;99.90
13794;DHT22;31160;49.500;7.772;2022-12-07T14:52:39;6.30;99.90
13794;DHT22;31160;49.500;7.772;2022-12-07T14:55:28;6.30;99.90
13794;DHT22;31160;49.500;7.772;2022-12-07T14:57:55;6.00;99.90
13794;DHT22;31160;49.500;7.772;2022-12-07T15:00:24;6.00;99.90
13794;DHT22;31160;49.500;7.772;2022-12-07T15:02:51;6.10;99.90
13794;DHT22;31160;49.500;7.772;2022-12-07T15:05:19;6.10;99.90
13794;DHT22;31160;49.500;7.772;2022-12-07T15:07:47;6.00;99.90
13794;DHT22;31160;49.500;7.772;2022-12-07T15:10:18;6.10;99.90
13794;DHT22;31160;49.500;7.772;2022-12-07T15:12:50;6.10;99.90
13794;DHT22;31160;49.500;7.772;2022-12-07T15:15:17;6.10;99.90
13794;DHT22;31160;49.500;7.772;2022-12-07T15:17:44;5.90;99.90
13794;DHT22;31160;49.500;7.772;2022-12-07T15:20:14;6.00;99.90
13794;DHT22;31160;49.500;7.772;2022-12-07T15:22:43;5.90;99.90
13794;DHT22;31160;49.500;7.772;2022-12-07T15:25:13;5.80;99.90
13794;DHT22;31160;49.500;7.772;2022-12-07T15:27:40;5.70;99.90
13794;DHT22;31160;49.500;7.772;2022-12-07T15:30:07;5.70;99.90
13794;DHT22;31160;49.500;7.772;2022-12-07T15:32:34;5.60;99.90
13794;DHT22;31160;49.500;7.772;2022-12-07T15:35:01;5.70;99.90
13794;DHT22;31160;49.500;7.772;2022-12-07T15:37:28;5.70;99.90
13794;DHT22;31160;49.500;7.772;2022-12-07T15:39:55;5.70;99.90
13794;DHT22;31160;49.500;7.772;2022-12-07T15:42:22;5.70;99.90
13794;DHT22;31160;49.500;7.772;2022-12-07T15:44:49;5.60;99.90
13794;DHT22;31160;49.500;7.772;2022-12-07T15:47:35;5.70;99.90
13794;DHT22;31160;49.500;7.772;2022-12-07T15:50:25;5.70;99.90
13794;DHT22;31160;49.500;7.772;2022-12-07T15:52:52;5.60;99.90
13794;DHT22;31160;49.500;7.772;2022-12-07T15:55:18;5.70;99.90
13794;DHT22;31160;49.500;7.772;2022-12-07T15:57:45;5.70;99.90
13794;DHT22;31160;49.500;7.772;2022-12-07T16:00:12;5.60;99.90
13794;DHT22;31160;49.500;7.772;2022-12-07T16:02:40;5.50;99.90
13794;DHT22;31160;49.500;7.772;2022-12-07T16:05:07;5.40;99.90
13794;DHT22;31160;49.500;7.772;2022-12-07T16:07:33;5.30;99.90
13794;DHT22;31160;49.500;7.772;2022-12-07T16:10:00;5.20;99.90
13794;DHT22;31160;49.500;7.772;2022-12-07T16:12:27;5.20;99.90
13794;DHT22;31160;49.500;7.772;2022-12-07T16:14:54;5.00;99.90
13794;DHT22;31160;49.500;7.772;2022-12-07T16:17:20;5.10;99.90
13794;DHT22;31160;49.500;7.772;2022-12-07T16:19:47;5.10;99.90
13794;DHT22;31160;49.500;7.772;2022-12-07T16:22:14;5.00;99.90
13794;DHT22;31160;49.500;7.772;2022-12-07T16:24:40;5.00;99.90
13794;DHT22;31160;49.500;7.772;2022-12-07T16:27:07;4.80;99.90
13794;DHT22;31160;49.500;7.772;2022-12-07T16:29:34;4.70;99.90
13794;DHT22;31160;49.500;7.772;2022-12-07T16:32:01;4.70;99.90
13794;DHT22;31160;49.500;7.772;2022-12-07T16:34:28;4.60;99.90
13794;DHT22;31160;49.500;7.772;2022-12-07T16:36:54;4.60;99.90
13794;DHT22;31160;49.500;7.772;2022-12-07T16:39:32;4.50;99.90
13794;DHT22;31160;49.500;7.772;2022-12-07T16:41:59;4.50;99.90
13794;DHT22;31160;49.500;7.772;2022-12-07T16:44:26;4.40;99.90
13794;DHT22;31160;49.500;7.772;2022-12-07T16:46:53;4.50;99.90
13794;DHT22;31160;49.500;7.772;2022-12-07T16:49:19;4.50;99.90
13794;DHT22;31160;49.500;7.772;2022-12-07T16:51:49;4.60;99.90
13794;DHT22;31160;49.500;7.772;2022-12-07T16:54:36;4.50;99.90
13794;DHT22;31160;49.500;7.772;2022-12-07T16:57:03;4.50;99.90
13794;DHT22;31160;49.500;7.772;2022-12-07T16:59:29;4.40;99.90
13794;DHT22;31160;49.500;7.772;2022-12-07T17:01:56;4.50;99.90
13794;DHT22;31160;49.500;7.772;2022-12-07T17:04:23;4.40;99.90
13794;DHT22;31160;49.500;7.772;2022-12-07T17:06:50;4.40;99.90
13794;DHT22;31160;49.500;7.772;2022-12-07T17:09:16;4.40;99.90
13794;DHT22;31160;49.500;7.772;2022-12-07T17:11:47;4.50;99.90
13794;DHT22;31160;49.500;7.772;2022-12-07T17:14:14;4.50;99.90
13794;DHT22;31160;49.500;7.772;2022-12-07T17:16:59;4.50;99.90
13794;DHT22;31160;49.500;7.772;2022-12-07T17:19:26;4.50;99.90
13794;DHT22;31160;49.500;7.772;2022-12-07T17:21:53;4.40;99.90
13794;DHT22;31160;49.500;7.772;2022-12-07T17:24:19;4.40;99.90
13794;DHT22;31160;49.500;7.772;2022-12-07T17:26:46;4.40;99.90
13794;DHT22;31160;49.500;7.772;2022-12-07T17:29:15;4.30;99.90
13794;DHT22;31160;49.500;7.772;2022-12-07T17:31:42;4.30;99.90
13794;DHT22;31160;49.500;7.772;2022-12-07T17:34:17;4.40;99.90
13794;DHT22;31160;49.500;7.772;2022-12-07T17:36:44;4.40;99.90
13794;DHT22;31160;49.500;7.772;2022-12-07T17:39:15;4.40;99.90
13794;DHT22;31160;49.500;7.772;2022-12-07T17:41:42;4.50;99.90
13794;DHT22;31160;49.500;7.772;2022-12-07T17:44:27;4.50;99.90
13794;DHT22;31160;49.500;7.772;2022-12-07T17:46:55;4.50;99.90
13794;DHT22;31160;49.500;7.772;2022-12-07T17:49:25;4.50;99.90
13794;DHT22;31160;49.500;7.772;2022-12-07T17:51:52;4.60;99.90
13794;DHT22;31160;49.500;7.772;2022-12-07T17:54:37;4.60;99.90
13794;DHT22;31160;49.500;7.772;2022-12-07T17:57:04;4.60;99.90
13794;DHT22;31160;49.500;7.772;2022-12-07T17:59:30;4.60;99.90
13794;DHT22;31160;49.500;7.772;2022-12-07T18:01:57;4.50;99.90
13794;DHT22;31160;49.500;7.772;2022-12-07T18:04:24;4.50;99.90
13794;DHT22;31160;49.500;7.772;2022-12-07T18:06:51;4.40;99.90
13794;DHT22;31160;49.500;7.772;2022-12-07T18:09:19;4.50;99.90
13794;DHT22;31160;49.500;7.772;2022-12-07T18:11:47;4.50;99.90
13794;DHT22;31160;49.500;7.772;2022-12-07T18:14:14;4.50;99.90